Adana, Turkey

6:09 AM EEST on August 01, 2014 (GMT +0300)
Adana (LTAF) Elev 66 ft | 36.98 °N, 35.30 °E | Change Station

Current weather conditions updated 19 minutes ago

Partly Cloudy
Partly Cloudy
75 °F
Feels Like 75 °F
N
0
Wind Variable Wind from North

Today is forecast to be Warmer than yesterday.

Today
High -- | Low -- °F
--% Chance of Precip.
Yesterday
High -- | Low -- °F
Precip. -- in
5:43 AM 7:45 PM
Waxing Crescent, 23% visible
Pressure 29.71 in
Visibility 6.2 miles
Clouds Few 3400 ft
Dew Point 72 °F
Humidity 89%
Rainfall 0.00 in
Snow Depth Not available.
UV 0 out of 12
Pollen Not available.
Air Quality Not available.
Flu Activity Not available.
METAR LTAF 010250Z 00000KT 9999 FEW034 24/22 Q1006 NOSIG RMK RWY23 00000KT

More Conditions Fewer Conditions

Pressure 29.71 in
Visibility 6.2 miles
Clouds Few 3400 ft
Dew Point 72 °F
Humidity 89%
Rainfall 0.00 in
Snow Depth Not available.
UV 0 out of 12
Pollen Not available.
Air Quality Not available.
Flu Activity Not available.
METAR LTAF 010250Z 00000KT 9999 FEW034 24/22 Q1006 NOSIG RMK RWY23 00000KT

More Conditions Fewer Conditions

10-Day Weather Forecast

Almanac

Astronomy

Aug. 01, 2014 Rise Set
Actual Time 5:43 AM EEST 7:45 PM EEST
Civil Twilight 5:15 AM EEST 8:14 PM EEST
Nautical Twilight 4:39 AM EEST 8:49 PM EEST
Astronomical Twilight 4:02 AM EEST 9:27 PM EEST
Moon 10:39 AM EEST 10:28 PM EEST
Length of Visible Light 14h 59m
Length of Day
14h 02m
Tomorrow will be 1m 46s shorter.
Waxing Crescent, 23% of the Moon is Illuminated
Jul 31
Waxing Crescent
Aug 3
First Quarter
Aug 10
Full
Aug 17
Last Quarter
Aug 25
New

Yesterday's Extremes

Country Highs Country Lows

Community

WunderPhotos

Upload Photos

1,739,497 photos uploaded!

Nearby

Snow Depth

Not available.

Earthquake Activity

City Distance Mag. Time & Date
No recent earthquake activity has been reported nearby.
Minimum magnitude displayed is 2.5.

Coastal Water Temperatures

Place Temperature
No Stations Reporting

Nearby Weather Stations

There are no personal weather stations in this area.